Hovd, Mongolia
Current Conditions -  °F | °C
As of 1:00 AM on Saturday 01 Nov 2014 (Local Time) from ZWWW Reporting Station
Clear Clear  
Wind Chill: 34°   Ceiling: Unl
Heat Index: 34°   Visibility: 4mi
Dew Point: 25°   Wind: 2mph
Humidity: 70%   Direction: NA
Pressure: 30.56"   Gusts: NA
Location:  48.02°N, 91.57°E
Report Text: ZWWW 311700Z VRB01MPS 7000 NSC 01/M04 Q1035 NOSIG
Loading
Personal Weather Stations






























Interactive Weather Map
Tropical Storm Tracking
New forecast layout! Learn more

10-Day Weather Forecast

Advertisements
Track Severe Weather on mobile